createdAt,value
2023-10-01T00:00:40.913Z,26.20
2023-10-01T00:03:08.837Z,26.30
2023-10-01T00:05:38.116Z,26.30
2023-10-01T00:08:09.869Z,26.30
2023-10-01T00:10:37.831Z,26.30
2023-10-01T00:13:05.988Z,26.30
2023-10-01T00:15:35.042Z,26.40
2023-10-01T00:18:02.966Z,26.40
2023-10-01T00:20:31.045Z,26.50
2023-10-01T00:23:02.175Z,26.50
2023-10-01T00:25:33.355Z,26.60
2023-10-01T00:28:01.749Z,26.60
2023-10-01T00:30:36.582Z,26.70
2023-10-01T00:33:09.553Z,26.80
2023-10-01T00:35:42.796Z,26.80
2023-10-01T00:38:11.296Z,26.90
2023-10-01T00:40:39.208Z,27.00
2023-10-01T00:43:08.063Z,27.00
2023-10-01T00:45:36.260Z,27.10
2023-10-01T00:48:09.263Z,27.10
2023-10-01T00:50:38.637Z,27.20
2023-10-01T00:53:07.250Z,27.20
2023-10-01T00:55:35.063Z,27.30
2023-10-01T00:58:04.096Z,27.40
2023-10-01T01:00:32.300Z,27.40
2023-10-01T01:03:09.527Z,27.60
2023-10-01T01:05:47.876Z,27.60
2023-10-01T01:08:29.523Z,27.70
2023-10-01T01:10:59.508Z,27.80
2023-10-01T01:13:30.477Z,27.90
2023-10-01T01:16:02.064Z,27.90
2023-10-01T01:18:32.697Z,28.00
2023-10-01T01:21:01.233Z,28.10
2023-10-01T01:23:33.152Z,28.10
2023-10-01T01:26:02.051Z,28.10
2023-10-01T01:28:33.218Z,28.20
2023-10-01T01:31:03.521Z,28.30
2023-10-01T01:33:34.951Z,28.30
2023-10-01T01:36:06.091Z,28.40
2023-10-01T01:38:34.421Z,28.40
2023-10-01T01:41:02.643Z,28.40
2023-10-01T01:43:33.637Z,28.50
2023-10-01T01:46:05.315Z,28.60
2023-10-01T01:48:36.201Z,28.70
2023-10-01T01:51:04.895Z,28.80
2023-10-01T01:53:37.873Z,28.80
2023-10-01T01:56:12.215Z,28.80
2023-10-01T01:58:46.527Z,28.90
2023-10-01T02:01:14.388Z,28.90
2023-10-01T02:03:46.241Z,28.90
2023-10-01T02:06:15.407Z,28.90
2023-10-01T02:09:01.567Z,29.00
2023-10-01T02:11:34.741Z,29.00
2023-10-01T02:14:05.134Z,29.00
2023-10-01T02:16:40.058Z,29.10
2023-10-01T02:19:20.899Z,29.20
2023-10-01T02:22:01.861Z,29.30
2023-10-01T02:24:45.118Z,29.50
2023-10-01T02:27:22.117Z,29.70
2023-10-01T02:30:08.339Z,29.90
2023-10-01T02:32:37.452Z,30.00
2023-10-01T02:35:25.443Z,30.10
2023-10-01T02:37:57.063Z,30.30
2023-10-01T02:40:25.109Z,30.40
2023-10-01T02:42:58.124Z,30.40
2023-10-01T02:45:37.327Z,30.50
2023-10-01T02:48:20.604Z,30.50
2023-10-01T02:50:56.084Z,30.50
2023-10-01T02:53:25.311Z,30.50
2023-10-01T02:55:53.970Z,30.40
2023-10-01T02:58:25.654Z,30.30
2023-10-01T03:00:54.872Z,30.40
2023-10-01T03:03:33.633Z,30.40
2023-10-01T03:06:10.744Z,30.40
2023-10-01T03:08:43.765Z,30.40
2023-10-01T03:11:13.468Z,30.50
2023-10-01T03:13:41.913Z,30.50
2023-10-01T03:16:27.990Z,30.50
2023-10-01T03:18:57.040Z,30.50
2023-10-01T03:21:43.098Z,30.60
2023-10-01T03:24:13.866Z,30.60
2023-10-01T03:26:45.730Z,30.60
2023-10-01T03:29:19.412Z,30.70
2023-10-01T03:31:48.333Z,30.70
2023-10-01T03:34:30.200Z,30.70
2023-10-01T03:37:01.985Z,30.80
2023-10-01T03:39:30.899Z,30.90
2023-10-01T03:42:11.012Z,31.10
2023-10-01T03:45:08.236Z,31.30
2023-10-01T03:47:36.423Z,31.30
2023-10-01T03:50:05.367Z,31.40
2023-10-01T03:52:41.425Z,31.40
2023-10-01T03:55:32.740Z,31.40
2023-10-01T03:58:06.481Z,31.40
2023-10-01T04:00:40.292Z,31.40
2023-10-01T04:03:09.100Z,31.40
2023-10-01T04:05:39.411Z,31.40
2023-10-01T04:08:13.165Z,31.40
2023-10-01T04:10:41.497Z,31.50
2023-10-01T04:13:15.902Z,31.50
2023-10-01T04:15:47.970Z,31.60
2023-10-01T04:18:16.165Z,31.60
2023-10-01T04:20:49.662Z,31.60
2023-10-01T04:23:31.014Z,31.70
2023-10-01T04:26:02.033Z,31.70
2023-10-01T04:28:32.551Z,31.80
2023-10-01T04:31:05.140Z,31.70
2023-10-01T04:33:33.084Z,31.70
2023-10-01T04:36:01.224Z,31.70
2023-10-01T04:38:37.935Z,31.70
2023-10-01T04:41:08.703Z,31.70
2023-10-01T04:43:43.974Z,31.70
2023-10-01T04:46:11.924Z,31.60
2023-10-01T04:48:41.386Z,31.60
2023-10-01T04:51:09.089Z,31.70
2023-10-01T04:53:37.022Z,31.60
2023-10-01T04:56:08.062Z,31.60
2023-10-01T04:58:39.703Z,31.50
2023-10-01T05:01:14.955Z,31.50
2023-10-01T05:03:46.040Z,31.50
2023-10-01T05:06:14.996Z,31.50
2023-10-01T05:08:44.282Z,31.40
2023-10-01T05:11:13.480Z,31.40
2023-10-01T05:13:41.666Z,31.40
2023-10-01T05:16:16.201Z,31.40
2023-10-01T05:18:44.786Z,31.50
2023-10-01T05:21:16.041Z,31.50
2023-10-01T05:23:45.790Z,31.40
2023-10-01T05:26:13.761Z,31.40
2023-10-01T05:28:44.606Z,31.40
2023-10-01T05:31:17.349Z,31.40
2023-10-01T05:33:48.019Z,31.40
2023-10-01T05:36:18.079Z,31.30
2023-10-01T05:38:46.852Z,31.20
2023-10-01T05:41:17.781Z,31.20
2023-10-01T05:43:51.027Z,31.20
2023-10-01T05:46:19.386Z,31.30
2023-10-01T05:48:51.525Z,31.30
2023-10-01T05:51:31.961Z,31.30
2023-10-01T05:54:01.729Z,31.40
2023-10-01T05:56:38.628Z,31.40
2023-10-01T05:59:07.711Z,31.40
2023-10-01T06:01:35.528Z,31.50
2023-10-01T06:04:03.632Z,31.40
2023-10-01T06:06:37.819Z,31.40
2023-10-01T06:09:11.712Z,31.40
2023-10-01T06:12:02.530Z,31.50
2023-10-01T06:14:40.812Z,31.50
2023-10-01T06:17:10.067Z,31.60
2023-10-01T06:19:42.638Z,31.70
2023-10-01T06:27:35.554Z,31.70
2023-10-01T06:30:09.113Z,31.70
2023-10-01T06:32:38.092Z,31.60
2023-10-01T06:35:10.373Z,31.50
2023-10-01T06:37:52.226Z,31.00
2023-10-01T06:40:33.034Z,31.50
2023-10-01T06:43:01.646Z,31.50
2023-10-01T06:45:43.302Z,31.00
2023-10-01T06:48:11.653Z,31.40
2023-10-01T06:50:42.422Z,31.40
2023-10-01T06:53:11.226Z,31.40
2023-10-01T06:55:47.255Z,31.40
2023-10-01T06:58:15.623Z,31.30
2023-10-01T07:00:43.621Z,31.20
2023-10-01T07:03:24.460Z,31.20
2023-10-01T07:05:53.837Z,31.20
2023-10-01T07:08:21.938Z,31.10
2023-10-01T07:10:52.804Z,31.20
2023-10-01T07:13:22.602Z,31.10
2023-10-01T07:18:25.988Z,31.20
2023-10-01T07:20:54.377Z,31.20
2023-10-01T07:23:23.537Z,31.40
2023-10-01T07:25:59.900Z,31.40
2023-10-01T07:28:27.953Z,31.50
2023-10-01T07:30:58.908Z,31.60
2023-10-01T07:36:18.730Z,31.60
2023-10-01T07:38:50.824Z,31.60
2023-10-01T07:41:19.747Z,31.60
2023-10-01T07:43:48.045Z,31.60
2023-10-01T07:46:21.226Z,31.60
2023-10-01T07:48:50.139Z,31.60
2023-10-01T07:51:35.306Z,31.60
2023-10-01T07:54:14.691Z,31.60
2023-10-01T07:56:52.512Z,31.60
2023-10-01T07:59:38.529Z,31.70
2023-10-01T08:02:21.739Z,31.70
2023-10-01T08:04:59.591Z,31.80
2023-10-01T08:07:41.582Z,31.90
2023-10-01T08:10:19.729Z,32.00
2023-10-01T08:12:54.993Z,32.00
2023-10-01T08:15:39.831Z,32.10
2023-10-01T08:18:27.658Z,32.20
2023-10-01T08:21:02.208Z,32.20
2023-10-01T08:23:32.784Z,32.30
2023-10-01T08:26:22.942Z,32.20
2023-10-01T08:29:00.695Z,32.30
2023-10-01T08:31:48.756Z,32.40
2023-10-01T08:34:39.964Z,32.40
2023-10-01T08:37:10.484Z,32.40
2023-10-01T08:39:51.515Z,32.60
2023-10-01T08:42:19.340Z,32.60
2023-10-01T08:44:56.464Z,32.70
2023-10-01T08:47:46.732Z,32.80
2023-10-01T08:50:37.175Z,32.80
2023-10-01T08:53:14.049Z,32.80
2023-10-01T08:55:49.067Z,32.80
2023-10-01T08:58:27.158Z,32.70
2023-10-01T09:01:14.385Z,32.70
2023-10-01T09:03:50.971Z,32.80
2023-10-01T09:06:34.286Z,32.70
2023-10-01T09:09:21.519Z,32.80
2023-10-01T09:11:52.399Z,32.60
2023-10-01T09:14:37.040Z,32.60
2023-10-01T09:17:26.637Z,32.40
2023-10-01T09:19:56.031Z,32.40
2023-10-01T09:22:37.373Z,32.30
2023-10-01T09:25:41.415Z,32.20
2023-10-01T09:28:30.230Z,32.10
2023-10-01T09:31:01.198Z,32.00
2023-10-01T09:33:31.999Z,31.90
2023-10-01T09:36:05.089Z,31.80
2023-10-01T09:38:33.482Z,31.70
2023-10-01T09:41:02.049Z,31.60
2023-10-01T09:43:33.532Z,31.50
2023-10-01T09:46:07.958Z,31.50
2023-10-01T09:48:39.287Z,31.40
2023-10-01T09:51:17.409Z,31.30
2023-10-01T09:53:55.651Z,31.30
2023-10-01T09:56:42.969Z,31.20
2023-10-01T09:59:12.836Z,31.20
2023-10-01T10:01:42.394Z,31.20
2023-10-01T10:04:12.651Z,31.20
2023-10-01T10:06:42.164Z,31.20
2023-10-01T10:09:31.987Z,31.20
2023-10-01T10:12:09.668Z,31.10
2023-10-01T10:14:38.547Z,31.10
2023-10-01T10:17:21.438Z,31.10
2023-10-01T10:19:58.864Z,31.00
2023-10-01T10:22:27.500Z,31.00
2023-10-01T10:25:15.164Z,31.00
2023-10-01T10:27:44.243Z,30.90
2023-10-01T10:30:18.893Z,30.90
2023-10-01T10:33:07.271Z,30.90
2023-10-01T10:35:41.475Z,30.90
2023-10-01T10:38:29.059Z,30.80
2023-10-01T10:41:09.284Z,30.80
2023-10-01T10:43:37.771Z,30.70
2023-10-01T10:46:07.641Z,30.70
2023-10-01T10:49:01.330Z,30.60
2023-10-01T10:51:46.847Z,30.60
2023-10-01T10:54:18.404Z,30.50
2023-10-01T10:56:46.319Z,30.40
2023-10-01T10:59:16.905Z,30.40
2023-10-01T11:01:49.212Z,30.40
2023-10-01T11:04:19.180Z,30.30
2023-10-01T11:07:03.342Z,30.30
2023-10-01T11:09:33.436Z,30.20
2023-10-01T11:12:05.922Z,30.20
2023-10-01T11:14:35.696Z,30.10
2023-10-01T11:17:05.771Z,30.10
2023-10-01T11:19:40.870Z,30.00
2023-10-01T11:22:10.267Z,30.00
2023-10-01T11:24:42.353Z,30.00
2023-10-01T11:27:17.258Z,29.90
2023-10-01T11:30:31.135Z,29.90
2023-10-01T11:33:01.564Z,29.80
2023-10-01T11:35:39.347Z,29.80
2023-10-01T11:38:21.416Z,29.80
2023-10-01T11:41:08.204Z,29.70
2023-10-01T11:44:01.321Z,29.70
2023-10-01T11:46:36.908Z,29.70
2023-10-01T11:49:12.001Z,29.70
2023-10-01T11:51:52.152Z,29.60
2023-10-01T11:54:21.614Z,29.60
2023-10-01T11:57:05.938Z,29.50
2023-10-01T11:59:36.845Z,29.50
2023-10-01T12:02:22.767Z,29.40
2023-10-01T12:05:01.384Z,29.40
2023-10-01T12:07:43.772Z,29.40
2023-10-01T12:10:30.831Z,29.30
2023-10-01T12:12:59.157Z,29.30
2023-10-01T12:15:36.725Z,29.30
2023-10-01T12:18:09.545Z,29.30
2023-10-01T12:20:51.990Z,29.30
2023-10-01T12:23:22.854Z,29.30
2023-10-01T12:25:53.881Z,29.30
2023-10-01T12:28:26.005Z,29.20
2023-10-01T12:31:01.197Z,29.30
2023-10-01T12:33:45.299Z,29.20
2023-10-01T12:36:34.485Z,29.20
2023-10-01T12:39:09.431Z,29.20
2023-10-01T12:42:10.250Z,29.20
2023-10-01T12:44:38.560Z,29.20
2023-10-01T12:47:11.771Z,29.20
2023-10-01T12:49:40.822Z,29.20
2023-10-01T12:52:16.130Z,29.20
2023-10-01T12:54:44.501Z,29.30
2023-10-01T12:57:19.957Z,29.20
2023-10-01T13:00:06.246Z,29.20
2023-10-01T13:02:45.278Z,29.10
2023-10-01T13:05:24.516Z,29.10
2023-10-01T13:07:54.497Z,29.10
2023-10-01T13:10:36.645Z,29.00
2023-10-01T13:13:07.326Z,29.00
2023-10-01T13:15:45.188Z,28.90
2023-10-01T13:18:30.870Z,28.90
2023-10-01T13:21:13.488Z,28.90
2023-10-01T13:23:44.533Z,28.90
2023-10-01T13:26:26.680Z,29.00
2023-10-01T13:29:03.935Z,29.00
2023-10-01T13:31:32.861Z,28.90
2023-10-01T13:34:20.447Z,29.00
2023-10-01T13:37:00.442Z,29.00
2023-10-01T13:39:49.118Z,29.00
2023-10-01T13:42:34.809Z,29.00
2023-10-01T13:45:20.935Z,29.00
2023-10-01T13:48:06.788Z,29.00
2023-10-01T13:50:55.275Z,29.00
2023-10-01T13:53:41.169Z,29.00
2023-10-01T13:56:27.226Z,29.00
2023-10-01T13:59:13.519Z,29.00
2023-10-01T14:02:07.421Z,29.00
2023-10-01T14:04:55.008Z,29.00
2023-10-01T14:07:41.085Z,29.00
2023-10-01T14:10:17.959Z,28.90
2023-10-01T14:12:57.828Z,28.90
2023-10-01T14:15:31.449Z,28.90
2023-10-01T14:18:00.098Z,28.90
2023-10-01T14:20:44.596Z,28.90
2023-10-01T14:23:24.778Z,28.90
2023-10-01T14:26:16.048Z,28.80
2023-10-01T14:28:51.040Z,28.80
2023-10-01T14:31:41.435Z,28.80
2023-10-01T14:34:12.723Z,28.80
2023-10-01T14:36:41.527Z,28.70
2023-10-01T14:39:10.663Z,28.70
2023-10-01T14:41:43.737Z,28.70
2023-10-01T14:44:12.483Z,28.70
2023-10-01T14:46:43.790Z,28.70
2023-10-01T14:49:12.396Z,28.70
2023-10-01T14:51:50.260Z,28.70
2023-10-01T14:54:19.384Z,28.70
2023-10-01T14:56:57.972Z,28.70
2023-10-01T14:59:32.711Z,28.60
2023-10-01T15:02:03.079Z,28.60
2023-10-01T15:04:37.754Z,28.60
2023-10-01T15:07:07.864Z,28.50
2023-10-01T15:09:39.244Z,28.50
2023-10-01T15:12:23.146Z,28.50
2023-10-01T15:15:08.220Z,28.50
2023-10-01T15:17:46.820Z,28.50
2023-10-01T15:20:29.823Z,28.50
2023-10-01T15:22:58.251Z,28.50
2023-10-01T15:25:35.062Z,28.40
2023-10-01T15:28:11.035Z,28.40
2023-10-01T15:30:46.679Z,28.40
2023-10-01T15:33:18.262Z,28.40
2023-10-01T15:35:55.575Z,28.40
2023-10-01T15:38:32.433Z,28.30
2023-10-01T15:41:01.379Z,28.30
2023-10-01T15:43:30.398Z,28.30
2023-10-01T15:46:14.356Z,28.30
2023-10-01T15:48:57.703Z,28.20
2023-10-01T15:51:29.334Z,28.20
2023-10-01T15:53:57.316Z,28.10
2023-10-01T15:56:32.719Z,28.10
2023-10-01T15:59:01.859Z,28.10
2023-10-01T16:01:31.568Z,28.10
2023-10-01T16:04:00.205Z,28.10
2023-10-01T16:06:28.839Z,28.10
2023-10-01T16:09:00.074Z,28.10
2023-10-01T16:11:35.465Z,28.10
2023-10-01T16:14:05.906Z,28.00
2023-10-01T16:16:34.549Z,28.00
2023-10-01T16:19:07.137Z,27.90
2023-10-01T16:21:44.461Z,27.90
2023-10-01T16:24:15.998Z,27.90
2023-10-01T16:26:46.429Z,27.80
2023-10-01T16:29:19.977Z,27.70
2023-10-01T16:31:49.229Z,27.70
2023-10-01T16:34:18.519Z,27.60
2023-10-01T16:36:47.214Z,27.50
2023-10-01T16:39:19.450Z,27.50
2023-10-01T16:41:48.844Z,27.40
2023-10-01T16:44:16.679Z,27.40
2023-10-01T16:46:46.686Z,27.40
2023-10-01T16:49:14.982Z,27.40
2023-10-01T16:51:45.367Z,27.30
2023-10-01T16:54:18.544Z,27.30
2023-10-01T16:56:49.084Z,27.30
2023-10-01T16:59:26.537Z,27.30
2023-10-01T17:02:00.341Z,27.30
2023-10-01T17:04:29.655Z,27.30
2023-10-01T17:06:58.689Z,27.30
2023-10-01T17:09:36.601Z,27.30
2023-10-01T17:12:06.088Z,27.30
2023-10-01T17:14:35.504Z,27.30
2023-10-01T17:17:05.722Z,27.30
2023-10-01T17:19:37.018Z,27.30
2023-10-01T17:22:12.250Z,27.20
2023-10-01T17:24:46.294Z,27.20
2023-10-01T17:27:21.472Z,27.20
2023-10-01T17:29:49.966Z,27.10
2023-10-01T17:32:20.473Z,27.10
2023-10-01T17:34:49.681Z,27.10
2023-10-01T17:37:28.027Z,27.10
2023-10-01T17:40:03.522Z,27.10
2023-10-01T17:42:32.237Z,27.00
2023-10-01T17:45:03.405Z,27.00
2023-10-01T17:47:32.803Z,27.00
2023-10-01T17:50:02.512Z,27.00
2023-10-01T17:52:38.272Z,27.00
2023-10-01T17:55:07.746Z,27.00
2023-10-01T17:57:41.337Z,27.00
2023-10-01T18:00:33.138Z,27.00
2023-10-01T18:03:02.681Z,27.00
2023-10-01T18:05:30.674Z,27.00
2023-10-01T18:08:09.721Z,27.00
2023-10-01T18:10:44.963Z,26.90
2023-10-01T18:13:16.888Z,26.90
2023-10-01T18:15:51.607Z,26.90
2023-10-01T18:18:26.897Z,26.90
2023-10-01T18:20:59.944Z,26.80
2023-10-01T18:23:27.929Z,26.80
2023-10-01T18:25:57.199Z,26.80
2023-10-01T18:28:27.617Z,26.80
2023-10-01T18:30:57.192Z,26.80
2023-10-01T18:33:31.313Z,26.80
2023-10-01T18:36:05.177Z,26.80
2023-10-01T18:38:34.896Z,26.80
2023-10-01T18:41:04.797Z,26.80
2023-10-01T18:43:33.410Z,26.80
2023-10-01T18:46:02.609Z,26.80
2023-10-01T18:48:41.598Z,26.80
2023-10-01T18:51:12.885Z,26.80
2023-10-01T18:53:41.941Z,26.80
2023-10-01T18:56:11.252Z,26.80
2023-10-01T18:58:39.916Z,26.80
2023-10-01T19:01:09.353Z,26.80
2023-10-01T19:03:38.551Z,26.80
2023-10-01T19:06:06.376Z,26.80
2023-10-01T19:08:35.644Z,26.80
2023-10-01T19:11:05.672Z,26.80
2023-10-01T19:13:35.474Z,26.70
2023-10-01T19:16:04.270Z,26.70
2023-10-01T19:18:35.504Z,26.70
2023-10-01T19:21:04.217Z,26.70
2023-10-01T19:23:33.704Z,26.70
2023-10-01T19:26:03.576Z,26.70
2023-10-01T19:28:33.240Z,26.70
2023-10-01T19:31:13.339Z,26.70
2023-10-01T19:33:45.520Z,26.60
2023-10-01T19:36:14.170Z,26.60
2023-10-01T19:38:49.131Z,26.60
2023-10-01T19:41:20.392Z,26.60
2023-10-01T19:43:52.628Z,26.60
2023-10-01T19:46:21.563Z,26.60
2023-10-01T19:48:51.062Z,26.60
2023-10-01T19:51:25.654Z,26.60
2023-10-01T19:54:03.300Z,26.60
2023-10-01T19:56:33.143Z,26.60
2023-10-01T19:59:10.337Z,26.60
2023-10-01T20:01:42.137Z,26.60
2023-10-01T20:04:15.075Z,26.50
2023-10-01T20:06:50.135Z,26.50
2023-10-01T20:09:36.260Z,26.50
2023-10-01T20:12:04.577Z,26.50
2023-10-01T20:14:36.954Z,26.50
2023-10-01T20:17:05.433Z,26.50
2023-10-01T20:19:34.202Z,26.40
2023-10-01T20:22:09.530Z,26.50
2023-10-01T20:24:38.323Z,26.50
2023-10-01T20:27:06.114Z,26.40
2023-10-01T20:29:36.622Z,26.40
2023-10-01T20:32:04.895Z,26.40
2023-10-01T20:34:33.669Z,26.40
2023-10-01T20:37:01.614Z,26.40
2023-10-01T20:39:39.757Z,26.40
2023-10-01T20:42:09.056Z,26.30
2023-10-01T20:44:37.867Z,26.30
2023-10-01T20:47:18.228Z,26.30
2023-10-01T20:49:48.321Z,26.30
2023-10-01T20:52:16.385Z,26.30
2023-10-01T20:54:47.097Z,26.30
2023-10-01T20:57:15.283Z,26.30
2023-10-01T20:59:47.247Z,26.30
2023-10-01T21:02:18.108Z,26.20
2023-10-01T21:04:46.000Z,26.20
2023-10-01T21:07:17.794Z,26.20
2023-10-01T21:09:49.197Z,26.20
2023-10-01T21:12:18.441Z,26.20
2023-10-01T21:14:50.124Z,26.20
2023-10-01T21:17:35.686Z,26.20
2023-10-01T21:20:15.262Z,26.20
2023-10-01T21:22:44.406Z,26.20
2023-10-01T21:25:30.881Z,26.20
2023-10-01T21:28:01.357Z,26.20
2023-10-01T21:30:30.345Z,26.20
2023-10-01T21:33:00.261Z,26.20
2023-10-01T21:35:28.598Z,26.20
2023-10-01T21:38:09.506Z,26.20
2023-10-01T21:40:38.044Z,26.20
2023-10-01T21:43:08.676Z,26.20
2023-10-01T21:46:00.827Z,26.20
2023-10-01T21:48:30.386Z,26.20
2023-10-01T21:51:01.803Z,26.20
2023-10-01T21:53:36.163Z,26.20
2023-10-01T21:56:12.112Z,26.20
2023-10-01T21:58:45.145Z,26.10
2023-10-01T22:01:35.973Z,26.10
2023-10-01T22:04:06.543Z,26.10
2023-10-01T22:06:38.293Z,26.10
2023-10-01T22:09:16.548Z,26.10
2023-10-01T22:11:45.968Z,26.10
2023-10-01T22:14:17.832Z,26.10
2023-10-01T22:16:46.494Z,26.10
2023-10-01T22:19:16.668Z,26.10
2023-10-01T22:21:46.949Z,26.10
2023-10-01T22:24:24.337Z,26.10
2023-10-01T22:26:56.406Z,26.00
2023-10-01T22:29:28.185Z,26.00
2023-10-01T22:31:59.446Z,26.00
2023-10-01T22:34:28.903Z,26.00
2023-10-01T22:36:57.594Z,26.00
2023-10-01T22:39:38.114Z,25.90
2023-10-01T22:42:32.303Z,25.90
2023-10-01T22:45:28.752Z,25.90
2023-10-01T22:47:57.306Z,25.90
2023-10-01T22:50:27.670Z,25.90
2023-10-01T22:52:56.619Z,25.90
2023-10-01T22:55:24.834Z,25.90
2023-10-01T22:57:53.342Z,25.80
2023-10-01T23:00:25.546Z,25.90
2023-10-01T23:02:54.569Z,25.90
2023-10-01T23:05:24.780Z,25.90
2023-10-01T23:07:53.044Z,25.90
2023-10-01T23:10:27.323Z,25.90
2023-10-01T23:13:11.590Z,25.90
2023-10-01T23:15:44.840Z,25.90
2023-10-01T23:18:33.842Z,25.90
2023-10-01T23:21:01.726Z,26.00
2023-10-01T23:23:30.864Z,26.00
2023-10-01T23:26:30.039Z,25.90
2023-10-01T23:29:31.365Z,26.00
2023-10-01T23:32:17.460Z,26.00
2023-10-01T23:34:54.153Z,26.00
2023-10-01T23:37:41.772Z,26.00
2023-10-01T23:40:12.526Z,26.00
2023-10-01T23:42:47.122Z,26.00
2023-10-01T23:45:18.809Z,26.00
2023-10-01T23:47:46.947Z,26.10
2023-10-01T23:50:30.443Z,26.10
2023-10-01T23:53:07.374Z,26.10
2023-10-01T23:55:38.327Z,26.10
2023-10-01T23:58:26.422Z,26.10
